Time;durP1;ratioP1;P1;durP2;ratioP2;P2;SDS_P1;SDS_P2;PMS_P1;PMS_P2;Temp;Humidity;BMP_temperature;BMP_pressure;BME280_temperature;BME280_humidity;BME280_pressure;Samples;Min_cycle;Max_cycle;Signal;HPM_P1;HPM_P2
2021/05/22 00:08:49;;;;;;;2.33;1.38;;;12.40;95.00;;;;;;5016860;28;20549;-86
2021/05/22 00:14:38;;;;;;;4.65;2.00;;;12.40;94.90;;;;;;5016472;28;20060;-84
2021/05/22 00:20:27;;;;;;;1.77;1.30;;;12.30;94.90;;;;;;5016383;28;20036;-84
2021/05/22 00:26:16;;;;;;;2.55;1.52;;;12.30;94.90;;;;;;5016595;28;20060;-84
2021/05/22 00:32:06;;;;;;;2.95;1.50;;;12.20;94.90;;;;;;5016470;28;20129;-87
2021/05/22 00:37:56;;;;;;;1.30;1.10;;;12.10;94.90;;;;;;5016087;28;20036;-87
2021/05/22 00:43:45;;;;;;;1.63;1.52;;;12.00;94.80;;;;;;5015886;28;20037;-86
2021/05/22 00:49:33;;;;;;;2.30;1.52;;;12.00;94.90;;;;;;5016073;28;20096;-86
2021/05/22 00:55:24;;;;;;;1.27;1.17;;;11.90;94.80;;;;;;5015712;28;20076;-86
2021/05/22 01:01:12;;;;;;;3.00;1.63;;;11.90;95.00;;;;;;5015850;28;20116;-86
2021/05/22 01:11:16;;;;;;;1.60;1.50;;;11.90;95.00;;;;;;5015771;28;20072;-85
2021/05/22 01:17:05;;;;;;;3.03;1.60;;;11.90;95.00;;;;;;5015583;28;20394;-87
2021/05/22 01:22:58;;;;;;;4.00;2.15;;;11.80;94.90;;;;;;5015453;28;20037;-86
2021/05/22 01:28:45;;;;;;;5.63;2.13;;;11.80;94.90;;;;;;5015068;28;20092;-85
2021/05/22 01:34:36;;;;;;;3.15;1.90;;;11.80;95.00;;;;;;5015316;28;20033;-87
2021/05/22 01:40:24;;;;;;;4.30;1.88;;;11.80;94.90;;;;;;5015190;28;20041;-87
2021/05/22 01:46:15;;;;;;;5.20;2.35;;;11.80;95.10;;;;;;5014739;28;20056;-87
2021/05/22 01:52:04;;;;;;;2.47;1.63;;;11.80;95.30;;;;;;5014672;28;20148;-87
2021/05/22 01:57:54;;;;;;;1.98;1.40;;;11.80;95.00;;;;;;5014876;28;20121;-87
2021/05/22 02:03:47;;;;;;;2.85;1.60;;;11.80;94.90;;;;;;5014404;28;20060;-88
2021/05/22 02:13:38;;;;;;;2.67;1.50;;;11.70;94.90;;;;;;5014406;28;20100;-86
2021/05/22 02:19:30;;;;;;;1.92;1.40;;;11.60;94.80;;;;;;5014236;28;20393;-87
2021/05/22 02:25:19;;;;;;;2.95;1.73;;;11.60;94.80;;;;;;5014099;28;20053;-87
2021/05/22 02:31:10;;;;;;;3.50;1.70;;;11.50;94.90;;;;;;5013993;28;20501;-87
2021/05/22 02:37:01;;;;;;;4.22;2.20;;;11.50;94.90;;;;;;5014210;28;20040;-87
2021/05/22 02:43:04;;;;;;;3.15;1.98;;;11.50;94.70;;;;;;5014119;28;20056;-87
2021/05/22 02:48:55;;;;;;;6.15;2.20;;;11.20;94.40;;;;;;5013811;28;20064;-85
2021/05/22 02:54:47;;;;;;;3.72;1.77;;;11.00;94.70;;;;;;5014064;28;20503;-86
2021/05/22 03:00:36;;;;;;;3.30;1.70;;;11.10;94.90;;;;;;5013714;28;20572;-85
2021/05/22 03:06:26;;;;;;;3.67;1.88;;;11.00;94.90;;;;;;5013861;28;20045;-85
2021/05/22 03:16:16;;;;;;;6.22;2.17;;;11.00;95.00;;;;;;5015064;28;20045;-86
2021/05/22 03:22:05;;;;;;;6.13;2.50;;;11.10;95.10;;;;;;5017724;28;20441;-87
2021/05/22 03:27:53;;;;;;;2.58;1.80;;;11.10;95.00;;;;;;5017357;28;20501;-87
2021/05/22 03:33:42;;;;;;;2.80;1.70;;;11.10;95.10;;;;;;5017305;28;20033;-87
2021/05/22 03:39:30;;;;;;;7.03;2.50;;;11.20;95.10;;;;;;5017394;28;20021;-87
2021/05/22 03:45:19;;;;;;;3.35;1.70;;;11.20;95.10;;;;;;5017066;28;20056;-87
2021/05/22 03:51:08;;;;;;;2.95;1.77;;;11.30;95.10;;;;;;5016937;28;20084;-87
2021/05/22 03:56:57;;;;;;;4.20;1.90;;;11.30;95.10;;;;;;5016813;28;20090;-86
2021/05/22 04:02:47;;;;;;;3.63;1.90;;;11.30;95.10;;;;;;5016755;28;20076;-85
2021/05/22 04:08:35;;;;;;;4.05;2.08;;;11.30;95.00;;;;;;5016663;28;20040;-85
2021/05/22 04:18:18;;;;;;;3.00;1.80;;;11.10;94.80;;;;;;5016720;28;20160;-86
2021/05/22 04:24:08;;;;;;;3.55;1.77;;;11.10;95.00;;;;;;5016436;28;20045;-86
2021/05/22 04:29:57;;;;;;;4.65;1.95;;;11.10;94.90;;;;;;5016153;28;20581;-85
2021/05/22 04:35:47;;;;;;;2.65;1.70;;;11.10;95.00;;;;;;5016412;28;20060;-86
2021/05/22 04:41:35;;;;;;;5.05;1.85;;;11.20;95.20;;;;;;5016310;28;20049;-86
2021/05/22 04:47:23;;;;;;;4.32;1.90;;;11.30;95.10;;;;;;5016174;28;20040;-86
2021/05/22 04:53:12;;;;;;;4.07;1.63;;;11.30;94.90;;;;;;5015769;28;20025;-86
2021/05/22 04:59:01;;;;;;;6.88;2.00;;;11.40;95.20;;;;;;5015859;28;20125;-86
2021/05/22 05:04:52;;;;;;;2.03;1.40;;;11.50;95.10;;;;;;5015616;28;20068;-87
2021/05/22 05:10:39;;;;;;;5.40;1.65;;;11.40;94.60;;;;;;5015715;28;20125;-87
2021/05/22 05:20:23;;;;;;;3.22;1.50;;;11.20;94.70;;;;;;5015561;28;20473;-88
2021/05/22 05:26:15;;;;;;;1.40;1.00;;;11.40;95.50;;;;;;5015195;28;20092;-88
2021/05/22 05:32:13;;;;;;;3.17;1.10;;;11.80;95.40;;;;;;5015299;28;20528;-86
2021/05/22 05:38:13;;;;;;;4.97;1.27;;;11.80;94.90;;;;;;5015239;28;20110;-87
2021/05/22 05:44:05;;;;;;;2.25;1.23;;;12.10;95.50;;;;;;5014900;28;20467;-87
2021/05/22 05:50:05;;;;;;;5.13;1.02;;;12.00;94.80;;;;;;5015495;28;20413;-88
2021/05/22 05:56:41;;;;;;;1.15;1.05;;;11.90;94.80;;;;;;5014909;28;20037;-88
2021/05/22 06:02:29;;;;;;;2.05;1.02;;;12.10;95.30;;;;;;4978559;28;20161;-87
2021/05/22 06:08:22;;;;;;;2.00;0.77;;;12.20;94.80;;;;;;5014386;28;20041;-87
2021/05/22 06:14:33;;;;;;;2.83;1.23;;;12.30;95.60;;;;;;5014307;28;20029;-86
2021/05/22 06:20:28;;;;;;;11.60;2.33;;;12.90;95.60;;;;;;5014417;28;20414;-88
2021/05/22 06:26:17;;;;;;;6.35;2.30;;;13.00;95.20;;;;;;5014235;28;20056;-85
2021/05/22 06:32:06;;;;;;;7.43;1.80;;;13.30;95.10;;;;;;5014119;28;20076;-84
2021/05/22 06:37:54;;;;;;;5.60;1.77;;;13.40;95.30;;;;;;5014039;28;20387;-83
2021/05/22 06:43:43;;;;;;;1.05;0.93;;;13.60;95.20;;;;;;5014091;28;20061;-83
2021/05/22 06:49:32;;;;;;;2.55;1.40;;;13.40;94.60;;;;;;5013817;28;20033;-83
2021/05/22 06:55:20;;;;;;;2.10;1.15;;;13.40;95.10;;;;;;5013874;28;20060;-84
2021/05/22 07:01:09;;;;;;;1.33;0.95;;;14.00;95.40;;;;;;5013857;28;20056;-83
2021/05/22 07:06:58;;;;;;;3.33;1.38;;;14.10;95.10;;;;;;5013637;28;20029;-83
2021/05/22 07:12:47;;;;;;;7.95;1.38;;;14.30;95.00;;;;;;5013560;28;20064;-83
2021/05/22 07:22:24;;;;;;;11.93;1.95;;;14.40;94.60;;;;;;5013975;28;20036;-85
2021/05/22 07:28:15;;;;;;;7.82;2.03;;;14.60;94.80;;;;;;5014053;28;20080;-84
2021/05/22 07:34:04;;;;;;;5.90;1.85;;;14.90;94.70;;;;;;5013703;28;20045;-84
2021/05/22 07:39:54;;;;;;;8.30;1.90;;;15.20;95.00;;;;;;5013344;28;20169;-84
2021/05/22 07:45:42;;;;;;;1.80;1.23;;;15.20;94.80;;;;;;5013100;28;20489;-85
2021/05/22 07:51:31;;;;;;;7.25;1.70;;;15.40;94.60;;;;;;5013160;28;20387;-84
2021/05/22 07:57:19;;;;;;;7.55;2.05;;;15.50;94.50;;;;;;5013306;28;20033;-84
2021/05/22 08:03:08;;;;;;;4.65;1.63;;;15.50;94.10;;;;;;5014198;28;20512;-85
2021/05/22 08:08:56;;;;;;;4.78;1.38;;;15.40;94.00;;;;;;5016523;28;20128;-84
2021/05/22 08:14:45;;;;;;;2.80;1.33;;;15.20;93.40;;;;;;5016723;28;20121;-83
2021/05/22 08:24:28;;;;;;;2.83;1.20;;;15.30;94.30;;;;;;5016371;28;20057;-84
2021/05/22 08:30:17;;;;;;;3.45;1.50;;;15.70;94.70;;;;;;5016257;28;20091;-84
2021/05/22 08:36:07;;;;;;;2.15;1.00;;;16.20;94.80;;;;;;5016324;28;20044;-84
2021/05/22 08:41:57;;;;;;;0.70;0.70;;;16.20;93.60;;;;;;5015931;28;20032;-84
2021/05/22 08:47:48;;;;;;;11.15;1.73;;;16.10;93.70;;;;;;5015806;28;20029;-84
2021/05/22 08:53:37;;;;;;;1.63;0.80;;;16.20;93.80;;;;;;5015721;28;20041;-83
2021/05/22 08:59:27;;;;;;;1.08;0.85;;;16.20;93.20;;;;;;5016984;28;20036;-84
2021/05/22 09:05:18;;;;;;;4.88;1.60;;;15.90;93.50;;;;;;5015497;28;20529;-84
2021/05/22 09:11:07;;;;;;;2.85;1.23;;;16.00;93.40;;;;;;5015394;28;20091;-84
2021/05/22 09:17:07;;;;;;;5.15;1.60;;;16.30;94.30;;;;;;5015609;28;20108;-84
2021/05/22 09:27:10;;;;;;;4.15;1.25;;;16.60;93.80;;;;;;5015571;28;20064;-83
2021/05/22 09:32:59;;;;;;;1.02;1.02;;;16.70;93.80;;;;;;5015039;28;20049;-84
2021/05/22 09:38:53;;;;;;;5.82;1.58;;;16.60;92.80;;;;;;5015089;28;20552;-83
2021/05/22 09:44:42;;;;;;;0.85;0.82;;;17.00;93.90;;;;;;5014765;28;20076;-83
2021/05/22 09:50:37;;;;;;;4.65;1.73;;;17.00;93.30;;;;;;5014965;28;20534;-83
2021/05/22 09:56:27;;;;;;;7.93;1.60;;;17.20;93.90;;;;;;5014616;28;20076;-84
2021/05/22 10:02:42;;;;;;;3.30;1.30;;;18.10;94.70;;;;;;5014729;28;20414;-87
2021/05/22 10:08:31;;;;;;;1.48;1.00;;;18.60;93.80;;;;;;5014675;28;20064;-88
2021/05/22 10:14:20;;;;;;;1.45;1.10;;;18.70;93.10;;;;;;5020122;28;20032;-85
2021/05/22 10:20:09;;;;;;;1.90;1.48;;;18.00;92.00;;;;;;5021322;28;20033;-85
2021/05/22 10:30:01;;;;;;;9.57;1.88;;;17.60;93.20;;;;;;5021359;28;20044;-86
2021/05/22 10:35:58;;;;;;;6.07;1.70;;;18.00;93.60;;;;;;5020997;28;20049;-86
2021/05/22 10:41:47;;;;;;;3.25;1.35;;;18.40;93.50;;;;;;5018801;28;20076;-85
2021/05/22 10:47:37;;;;;;;2.13;1.10;;;18.50;93.40;;;;;;5018238;28;20116;-86
2021/05/22 10:53:36;;;;;;;5.10;1.70;;;19.10;93.60;;;;;;5022013;28;20048;-85
2021/05/22 10:59:25;;;;;;;2.17;1.10;;;19.60;93.00;;;;;;5020910;28;20094;-85
2021/05/22 11:05:28;;;;;;;2.13;0.98;;;19.20;91.90;;;;;;5019362;28;20057;-85
2021/05/22 11:11:34;;;;;;;1.58;0.82;;;18.80;92.00;;;;;;5013511;28;20493;-85
2021/05/22 11:17:22;;;;;;;3.40;1.45;;;19.30;94.80;;;;;;5013784;28;20076;-84
2021/05/22 11:23:11;;;;;;;2.92;1.38;;;21.00;93.20;;;;;;5013723;28;20045;-85
2021/05/22 11:33:02;;;;;;;3.35;1.40;;;22.30;93.60;;;;;;5013561;28;20125;-85
2021/05/22 11:38:53;;;;;;;3.03;1.35;;;22.40;90.50;;;;;;5016208;28;20041;-85
2021/05/22 11:44:53;;;;;;;4.35;1.10;;;23.60;94.50;;;;;;5019327;28;20060;-86
2021/05/22 11:50:41;;;;;;;4.80;1.60;;;23.50;91.20;;;;;;5017181;28;20444;-85
2021/05/22 11:56:34;;;;;;;3.70;1.40;;;25.30;94.30;;;;;;5017061;28;20041;-85
2021/05/22 12:02:41;;;;;;;3.72;1.05;;;26.90;92.90;;;;;;5016920;28;20080;-85
2021/05/22 12:08:15;;;;;;;1.48;0.70;;;26.00;84.20;;;;;;5016899;28;20013;-85
2021/05/22 12:14:08;;;;;;;1.65;0.85;;;24.20;90.00;;;;;;5016424;28;20029;-85
2021/05/22 12:19:57;;;;;;;4.00;1.42;;;25.40;90.60;;;;;;5016628;28;20052;-85
2021/05/22 12:25:46;;;;;;;2.88;1.30;;;26.30;92.40;;;;;;5016242;28;20110;-85
2021/05/22 12:35:36;;;;;;;3.65;1.40;;;24.90;91.50;;;;;;5016300;28;20047;-85
2021/05/22 12:41:37;;;;;;;1.65;0.80;;;26.00;87.90;;;;;;5015948;28;20040;-85
2021/05/22 12:47:43;;;;;;;4.85;1.75;;;24.60;88.10;;;;;;5015869;28;20207;-85
2021/05/22 12:53:33;;;;;;;4.43;1.30;;;27.10;88.00;;;;;;5015787;28;20064;-86
2021/05/22 12:59:23;;;;;;;3.50;0.75;;;25.90;84.80;;;;;;5015936;28;20366;-85
2021/05/22 13:05:12;;;;;;;3.20;1.33;;;26.80;94.00;;;;;;5015537;28;20100;-85
2021/05/22 13:11:09;;;;;;;2.38;1.60;;;28.30;86.10;;;;;;5015418;28;20041;-85
2021/05/22 13:16:58;;;;;;;3.47;1.30;;;29.90;93.90;;;;;;5015260;28;20048;-86
2021/05/22 13:22:47;;;;;;;3.83;1.33;;;32.00;88.10;;;;;;5015296;28;20401;-86
2021/05/22 13:28:38;;;;;;;2.22;1.02;;;30.40;85.00;;;;;;5015094;28;20032;-86
2021/05/22 13:38:27;;;;;;;5.63;1.98;;;26.10;78.40;;;;;;5015202;28;20453;-85
2021/05/22 13:44:18;;;;;;;4.10;1.25;;;27.20;93.90;;;;;;5014911;28;20052;-85
2021/05/22 13:50:10;;;;;;;1.58;1.35;;;25.90;78.40;;;;;;5014670;28;20029;-85
2021/05/22 13:56:24;;;;;;;5.18;1.80;;;25.60;84.20;;;;;;5014649;28;20065;-85
2021/05/22 14:02:12;;;;;;;1.20;0.65;;;29.20;97.50;;;;;;5013675;28;20033;-85
2021/05/22 14:08:00;;;;;;;3.47;1.52;;;31.40;91.40;;;;;;5014656;28;20084;-85
2021/05/22 14:13:49;;;;;;;4.43;1.73;;;34.00;93.10;;;;;;5014470;28;20418;-86
2021/05/22 14:19:37;;;;;;;2.05;1.50;;;37.30;90.50;;;;;;5014121;28;20436;-86
2021/05/22 14:25:26;;;;;;;3.15;1.50;;;35.80;66.70;;;;;;5014053;28;20125;-86
2021/05/22 14:31:15;;;;;;;4.80;1.60;;;36.50;91.00;;;;;;5014152;28;20028;-86
2021/05/22 14:41:05;;;;;;;2.08;1.08;;;35.10;66.70;;;;;;5014172;28;20105;-85
2021/05/22 14:46:54;;;;;;;3.17;1.50;;;31.90;87.50;;;;;;5014004;28;20092;-85
2021/05/22 14:52:42;;;;;;;5.55;1.67;;;34.40;71.00;;;;;;5013970;28;20088;-85
2021/05/22 14:58:32;;;;;;;3.22;1.38;;;36.10;90.20;;;;;;5013648;28;20048;-86
2021/05/22 15:04:21;;;;;;;2.30;1.10;;;37.70;77.70;;;;;;5013623;28;20441;-86
2021/05/22 15:10:09;;;;;;;3.88;1.50;;;36.40;77.40;;;;;;5013837;28;20033;-86
2021/05/22 15:15:58;;;;;;;2.67;1.60;;;37.50;74.10;;;;;;5017718;28;20033;-86
2021/05/22 15:21:46;;;;;;;3.13;1.45;;;37.90;74.70;;;;;;5017742;28;20037;-86
2021/05/22 15:27:35;;;;;;;1.77;1.10;;;38.00;73.00;;;;;;5017694;28;20044;-86
2021/05/22 15:33:25;;;;;;;2.00;1.55;;;37.90;73.30;;;;;;5017740;28;20037;-86
2021/05/22 15:43:08;;;;;;;2.38;1.20;;;35.90;60.20;;;;;;5017342;28;20037;-86
2021/05/22 16:01:00;;;;;;;2.20;1.20;;;31.60;83.60;;;;;;5016978;28;20064;-86
2021/05/22 16:06:48;;;;;;;1.52;1.10;;;34.40;79.60;;;;;;5016664;28;20052;-85
2021/05/22 16:12:37;;;;;;;3.00;1.40;;;34.60;70.80;;;;;;5016823;28;20036;-86
2021/05/22 16:18:26;;;;;;;4.60;1.60;;;30.80;62.20;;;;;;5016407;28;20504;-85
2021/05/22 16:24:14;;;;;;;2.38;1.25;;;31.00;76.20;;;;;;5015262;28;20057;-85
2021/05/22 16:30:05;;;;;;;2.92;1.35;;;31.40;73.20;;;;;;5016444;28;20560;-85
2021/05/22 16:35:53;;;;;;;1.65;0.82;;;31.10;71.10;;;;;;5016245;28;20080;-86
2021/05/22 16:45:43;;;;;;;1.42;1.08;;;30.40;73.80;;;;;;5015878;28;20065;-85
2021/05/22 16:51:33;;;;;;;4.05;1.50;;;30.60;73.20;;;;;;5015808;28;20048;-85
2021/05/22 16:57:22;;;;;;;2.08;1.02;;;30.80;72.00;;;;;;5015674;28;20041;-85
2021/05/22 17:03:10;;;;;;;2.25;0.95;;;30.30;70.10;;;;;;5015487;28;20029;-85
2021/05/22 17:08:58;;;;;;;2.78;1.13;;;29.30;70.30;;;;;;5015702;28;20096;-85
2021/05/22 17:14:46;;;;;;;1.23;0.88;;;28.40;69.40;;;;;;5015537;28;20091;-85
2021/05/22 17:20:34;;;;;;;3.20;0.95;;;27.70;70.30;;;;;;5015166;28;20044;-85
2021/05/22 17:26:23;;;;;;;2.88;0.98;;;25.90;71.80;;;;;;5016149;28;20104;-85
2021/05/22 17:32:13;;;;;;;3.38;0.90;;;24.90;71.20;;;;;;5015027;28;20393;-85
2021/05/22 17:38:00;;;;;;;2.88;1.70;;;23.70;73.90;;;;;;5014877;28;20033;-85
2021/05/22 17:47:44;;;;;;;2.65;1.10;;;23.50;75.40;;;;;;5015029;28;20109;-85
2021/05/22 17:53:33;;;;;;;2.40;1.00;;;23.10;76.70;;;;;;5014619;28;20032;-85
2021/05/22 17:59:21;;;;;;;3.38;1.10;;;22.40;75.70;;;;;;5014875;28;20040;-84
2021/05/22 18:05:15;;;;;;;3.17;1.08;;;21.40;75.60;;;;;;5014394;28;20053;-84
2021/05/22 18:11:03;;;;;;;3.13;1.40;;;20.90;77.30;;;;;;5014506;28;20041;-84
2021/05/22 18:16:53;;;;;;;5.40;2.25;;;20.40;78.20;;;;;;5014506;28;20044;-84
2021/05/22 18:22:44;;;;;;;2.65;1.20;;;20.00;77.90;;;;;;5014327;28;20053;-84
2021/05/22 18:28:33;;;;;;;5.50;1.80;;;19.70;79.40;;;;;;5014111;28;20041;-85
2021/05/22 18:34:24;;;;;;;5.45;1.70;;;19.60;80.10;;;;;;5014219;28;20386;-84
2021/05/22 18:40:18;;;;;;;5.82;2.00;;;19.50;80.20;;;;;;5013950;28;20025;-84
2021/05/22 18:50:08;;;;;;;4.57;1.42;;;19.30;81.20;;;;;;5014029;28;20044;-85
2021/05/22 18:55:56;;;;;;;3.28;1.23;;;18.90;80.50;;;;;;5013655;28;20040;-85
2021/05/22 19:01:45;;;;;;;2.08;1.40;;;18.40;80.20;;;;;;5013614;28;20501;-85
2021/05/22 19:07:35;;;;;;;4.25;1.58;;;18.00;81.40;;;;;;5013714;28;20045;-86
2021/05/22 19:13:23;;;;;;;2.33;1.33;;;17.80;81.60;;;;;;5008557;28;20036;-86
2021/05/22 19:19:12;;;;;;;3.35;1.25;;;17.50;81.70;;;;;;5013700;28;20041;-86
2021/05/22 19:25:01;;;;;;;6.65;2.20;;;17.20;82.20;;;;;;5013249;28;20061;-85
2021/05/22 19:30:51;;;;;;;2.45;1.60;;;17.00;82.30;;;;;;5013497;28;20036;-86
2021/05/22 19:36:40;;;;;;;3.80;1.77;;;16.80;83.10;;;;;;5013253;28;20057;-86
2021/05/22 19:42:28;;;;;;;4.13;1.45;;;16.60;82.70;;;;;;5013527;28;20037;-86
2021/05/22 19:52:11;;;;;;;4.68;2.25;;;16.20;83.30;;;;;;5013363;28;20418;-85
2021/05/22 19:57:59;;;;;;;3.90;1.80;;;16.00;83.20;;;;;;5013052;28;20393;-85
2021/05/22 20:03:47;;;;;;;4.40;1.85;;;15.70;83.30;;;;;;5016608;28;20041;-85
2021/05/22 20:09:36;;;;;;;5.15;2.25;;;15.40;83.20;;;;;;5019082;28;20564;-86
2021/05/22 20:15:36;;;;;;;6.50;2.22;;;15.20;83.50;;;;;;5013911;28;20052;-87
2021/05/22 20:21:33;;;;;;;5.35;2.45;;;14.80;83.40;;;;;;5018565;28;20052;-88
2021/05/22 20:27:23;;;;;;;6.68;2.10;;;14.60;83.90;;;;;;5016774;28;20032;-86
2021/05/22 20:33:40;;;;;;;6.22;2.10;;;14.30;83.90;;;;;;5016451;28;20033;-89
2021/05/22 20:39:39;;;;;;;7.60;2.95;;;14.10;84.20;;;;;;5016233;28;20135;-88
2021/05/22 20:45:28;;;;;;;6.70;2.33;;;14.00;84.70;;;;;;5016203;28;20057;-87
2021/05/22 20:55:20;;;;;;;5.65;2.42;;;14.00;85.60;;;;;;5015793;28;20497;-87
2021/05/22 21:01:12;;;;;;;6.38;2.75;;;13.80;85.40;;;;;;5015867;28;20025;-86
2021/05/22 21:07:05;;;;;;;6.53;2.60;;;13.70;85.30;;;;;;5015557;28;20057;-87
2021/05/22 21:13:01;;;;;;;7.57;3.03;;;13.50;85.30;;;;;;5015393;28;20048;-86
2021/05/22 21:18:49;;;;;;;9.35;3.80;;;13.40;86.10;;;;;;5015261;28;20091;-87
2021/05/22 21:42:40;;;;;;;7.75;3.17;;;13.30;87.10;;;;;;4879048;29;20089;-88
2021/05/22 22:05:42;;;;;;;9.32;3.67;;;13.30;87.60;;;;;;4841256;29;20098;-88
2021/05/22 22:14:56;;;;;;;9.32;3.70;;;13.40;87.80;;;;;;4934967;29;20072;-88
2021/05/22 22:20:59;;;;;;;7.70;2.95;;;13.30;87.60;;;;;;4935510;28;20578;-88
2021/05/22 22:26:48;;;;;;;4.93;2.25;;;13.20;87.90;;;;;;5014005;28;20405;-86
2021/05/22 22:32:36;;;;;;;5.20;2.38;;;13.20;88.20;;;;;;5014027;28;20033;-86
2021/05/22 22:38:31;;;;;;;4.03;2.00;;;13.20;88.30;;;;;;5013962;28;20033;-87
2021/05/22 22:44:22;;;;;;;5.53;2.00;;;13.20;88.40;;;;;;5013744;28;20601;-88
2021/05/22 22:50:11;;;;;;;4.53;1.90;;;13.20;88.30;;;;;;5014040;28;20113;-87
2021/05/22 22:56:05;;;;;;;5.78;2.28;;;13.20;88.60;;;;;;5013875;28;20464;-87
2021/05/22 23:05:47;;;;;;;5.50;2.47;;;13.10;88.40;;;;;;5013807;28;20605;-86
2021/05/22 23:11:37;;;;;;;4.43;2.10;;;13.00;88.40;;;;;;5013562;28;20157;-87
2021/05/22 23:17:26;;;;;;;7.03;2.05;;;13.00;88.70;;;;;;5013735;28;20505;-87
2021/05/22 23:23:27;;;;;;;5.45;1.85;;;12.90;88.50;;;;;;5013374;28;20032;-87
2021/05/22 23:29:15;;;;;;;4.57;1.95;;;13.00;89.30;;;;;;5013626;28;20044;-87
2021/05/22 23:35:09;;;;;;;4.25;1.80;;;13.20;89.40;;;;;;5017455;28;20113;-85
2021/05/22 23:40:58;;;;;;;2.53;1.60;;;13.00;89.40;;;;;;5017361;28;20125;-85
2021/05/22 23:46:46;;;;;;;6.30;1.70;;;13.10;89.60;;;;;;5017288;28;20095;-85
2021/05/22 23:52:53;;;;;;;3.40;1.80;;;13.20;89.70;;;;;;5017118;28;20052;-87
2021/05/22 23:58:42;;;;;;;6.03;1.83;;;13.20;89.80;;;;;;5014408;28;20095;-85
